首页
METAR-TAF:

METAR-TAF

机场 :

庫洛布, 塔吉克斯坦

纬度: 37-59-18N, 经度: 069-48-18E, 海拔: 699米

当前天气观测

该预报发布于43分钟前的08:30 UTC
风速8节,风向
温度 11°C
湿度 82%
气压 1021 hPa
能見度: 9000
阴天层高于3000英尺, 积雨云.
小阵雨

METAR: UTDK 010830Z 19004MPS 9000 -SHRA OVC030CB 11/08 Q1021 R01/29//50 RMK QFE708/0944

时间: 14:13 (09:13 UTC)

预报

该预报发布于3小时和13分钟前的06:00 UTC
预报有效从01日的 07点(UTC)到 01日的 16点(UTC)
风速4节,风向多变
能見度: 5000
散云层高于1100英尺
多云层高于3000英尺, 积雨云.
阴天层高于4000英尺
小阵雨, 轻雾
短暂存在
从 01日的 07点(UTC)到 01日的 16点(UTC)
风速12节,风向西南
能見度: 2400
雷暴, 小雨, 轻雾

TAF: UTDK 010600Z 0107/0116 VRB02MPS 5000 -SHRA BR SCT011 BKN030CB OVC040 TEMPO 0107/0116 22006MPS 2400 -TSRA BR

超过4000个机场的气象观测和天气预报(METAR&TAF报告)。

可查询的气象台以黄色和红色小点在地图上表示。

将鼠标移到小点上方,可查看气象台名称。

然后点击查看天气观测和预报。

如需切换地图:点击带黑十字的绿色按钮放大地图;点击带横线的绿色按钮缩小地图;或者点击绿色箭头查看邻近地区的地图。


METAR-TAF: